Sayner, Wisconsin
Current Conditions -  °F | °C
As of 1:35 AM on Friday 26 Dec 2014 (Local Time) from KARV Reporting Station
Haze Haze  
Wind Chill: 26°   Ceiling: 2800
Heat Index: 26°   Visibility: 0.75mi
Dew Point: 25°   Wind: 0mph
Humidity: 94%   Direction: NA
Pressure: 29.87"   Gusts: NA
Location:  45.99°N, 89.53°W
Report Text: KARV 260735Z AUTO 00000KT 3/4SM BR OVC028 M03/M04 A2987 RMK AO2 T10331041
Loading
Personal Weather Stations






























Interactive Weather Map New forecast layout! Learn more

10-Day Weather Forecast

Advertisements
Track Severe Weather on mobile